createdAt,value
2022-08-05T00:00:56.097Z,3.50
2022-08-05T00:03:51.977Z,3.63
2022-08-05T00:06:32.118Z,2.97
2022-08-05T00:09:00.925Z,3.08
2022-08-05T00:11:30.679Z,3.15
2022-08-05T00:14:11.990Z,3.70
2022-08-05T00:16:52.398Z,3.25
2022-08-05T00:19:45.651Z,3.17
2022-08-05T00:22:26.601Z,3.30
2022-08-05T00:25:12.783Z,3.13
2022-08-05T00:27:42.782Z,3.47
2022-08-05T00:30:29.205Z,3.42
2022-08-05T00:33:04.765Z,3.20
2022-08-05T00:35:33.439Z,3.25
2022-08-05T00:38:01.178Z,2.95
2022-08-05T00:40:53.235Z,3.67
2022-08-05T00:43:21.115Z,3.60
2022-08-05T00:46:06.522Z,3.88
2022-08-05T00:48:34.249Z,3.65
2022-08-05T00:51:52.029Z,4.03
2022-08-05T00:54:28.168Z,3.10
2022-08-05T00:57:15.904Z,3.80
2022-08-05T00:59:48.731Z,3.08
2022-08-05T01:02:16.652Z,3.83
2022-08-05T01:04:44.005Z,3.10
2022-08-05T01:07:13.848Z,3.63
2022-08-05T01:09:41.851Z,3.50
2022-08-05T01:12:17.952Z,3.80
2022-08-05T01:15:18.159Z,3.38
2022-08-05T01:18:05.057Z,3.33
2022-08-05T01:21:25.544Z,3.28
2022-08-05T01:24:47.366Z,3.50
2022-08-05T01:27:32.901Z,3.35
2022-08-05T01:30:03.633Z,2.53
2022-08-05T01:32:51.383Z,3.33
2022-08-05T01:35:51.722Z,3.70
2022-08-05T01:38:34.197Z,3.95
2022-08-05T01:41:04.954Z,3.00
2022-08-05T01:43:52.659Z,3.35
2022-08-05T01:46:42.867Z,3.55
2022-08-05T01:50:00.272Z,3.40
2022-08-05T01:54:52.800Z,4.18
2022-08-05T01:58:11.257Z,3.53
2022-08-05T02:00:21.077Z,3.33
2022-08-05T02:03:04.074Z,3.38
2022-08-05T02:05:35.997Z,3.25
2022-08-05T02:08:05.362Z,3.30
2022-08-05T02:10:59.233Z,3.90
2022-08-05T02:13:53.183Z,3.80
2022-08-05T02:16:52.336Z,3.47
2022-08-05T02:19:28.679Z,3.85
2022-08-05T02:25:02.365Z,4.70
2022-08-05T02:27:59.289Z,4.53
2022-08-05T02:30:34.293Z,4.93
2022-08-05T02:33:02.872Z,5.43
2022-08-05T02:35:38.081Z,6.45
2022-08-05T02:38:35.290Z,6.95
2022-08-05T02:41:14.805Z,8.32
2022-08-05T02:44:05.953Z,9.82
2022-08-05T02:46:43.981Z,9.23
2022-08-05T02:49:40.633Z,9.40
2022-08-05T02:52:25.964Z,9.85
2022-08-05T02:55:11.008Z,9.18
2022-08-05T02:58:12.112Z,9.25
2022-08-05T03:00:55.159Z,9.75
2022-08-05T03:03:25.593Z,10.25
2022-08-05T03:06:56.736Z,10.23
2022-08-05T03:08:59.556Z,10.85
2022-08-05T03:11:57.349Z,10.60
2022-08-05T03:14:29.178Z,11.05
2022-08-05T03:16:59.080Z,11.07
2022-08-05T03:19:36.292Z,11.38
2022-08-05T03:22:04.994Z,11.23
2022-08-05T03:24:47.081Z,11.70
2022-08-05T03:27:19.850Z,10.93
2022-08-05T03:30:07.779Z,11.98
2022-08-05T03:32:37.861Z,12.07
2022-08-05T03:35:23.602Z,12.05
2022-08-05T03:37:50.838Z,12.55
2022-08-05T03:40:40.984Z,12.65
2022-08-05T03:43:59.105Z,12.52
2022-08-05T03:46:03.210Z,11.90
2022-08-05T03:48:35.550Z,11.85
2022-08-05T03:52:37.938Z,11.75
2022-08-05T03:57:16.668Z,11.40
2022-08-05T03:59:55.001Z,12.50
2022-08-05T04:02:38.646Z,12.52
2022-08-05T04:05:34.666Z,12.57
2022-08-05T04:08:30.220Z,12.70
2022-08-05T04:11:04.544Z,14.07
2022-08-05T04:13:53.334Z,14.38
2022-08-05T04:16:24.959Z,13.43
2022-08-05T04:19:12.706Z,13.63
2022-08-05T04:22:09.882Z,14.23
2022-08-05T04:24:52.936Z,13.43
2022-08-05T04:27:41.721Z,14.20
2022-08-05T04:30:26.534Z,14.30
2022-08-05T04:32:53.915Z,13.80
2022-08-05T04:35:21.021Z,14.63
2022-08-05T04:38:02.555Z,14.55
2022-08-05T04:40:43.732Z,16.17
2022-08-05T04:43:16.523Z,17.48
2022-08-05T04:46:04.024Z,15.90
2022-08-05T04:48:32.443Z,17.55
2022-08-05T04:51:18.049Z,19.52
2022-08-05T04:53:45.231Z,17.92
2022-08-05T04:56:34.913Z,17.75
2022-08-05T04:59:23.996Z,16.95
2022-08-05T05:02:35.135Z,17.00
2022-08-05T05:04:38.167Z,16.70
2022-08-05T05:07:09.397Z,17.58
2022-08-05T05:09:39.673Z,17.38
2022-08-05T05:12:27.437Z,19.08
2022-08-05T05:14:54.986Z,18.92
2022-08-05T05:17:56.949Z,18.92
2022-08-05T05:20:28.414Z,18.98
2022-08-05T05:23:08.163Z,19.92
2022-08-05T05:25:40.746Z,20.00
2022-08-05T05:28:10.048Z,20.13
2022-08-05T05:30:38.433Z,20.98
2022-08-05T05:33:17.292Z,19.70
2022-08-05T05:35:46.653Z,21.40
2022-08-05T05:38:14.431Z,20.63
2022-08-05T05:40:49.821Z,20.65
2022-08-05T05:43:57.319Z,20.40
2022-08-05T05:46:31.824Z,19.23
2022-08-05T05:49:06.498Z,18.38
2022-08-05T05:51:50.757Z,20.58
2022-08-05T05:54:20.862Z,19.67
2022-08-05T05:56:48.288Z,21.55
2022-08-05T05:59:15.770Z,21.52
2022-08-05T06:01:57.350Z,21.00
2022-08-05T06:04:25.399Z,22.00
2022-08-05T06:06:52.769Z,20.67
2022-08-05T06:09:24.657Z,22.48
2022-08-05T06:12:01.783Z,22.15
2022-08-05T06:14:40.124Z,22.58
2022-08-05T06:17:24.319Z,22.23
2022-08-05T06:19:56.807Z,23.02
2022-08-05T06:22:29.627Z,23.02
2022-08-05T06:25:59.223Z,23.17
2022-08-05T06:28:11.408Z,23.85
2022-08-05T06:30:39.161Z,24.38
2022-08-05T06:33:09.884Z,24.85
2022-08-05T06:36:07.428Z,27.35
2022-08-05T06:38:36.417Z,30.13
2022-08-05T06:41:08.007Z,31.80
2022-08-05T06:43:58.799Z,34.47
2022-08-05T06:46:29.706Z,36.25
2022-08-05T06:49:15.730Z,37.38
2022-08-05T06:51:47.496Z,38.17
2022-08-05T06:54:33.085Z,37.72
2022-08-05T06:57:56.624Z,41.38
2022-08-05T07:00:09.647Z,40.45
2022-08-05T07:02:47.518Z,41.00
2022-08-05T07:05:23.431Z,40.30
2022-08-05T07:07:59.069Z,40.22
2022-08-05T07:10:30.475Z,39.70
2022-08-05T07:13:57.063Z,41.08
2022-08-05T07:17:56.618Z,39.70
2022-08-05T07:19:12.081Z,39.30
2022-08-05T07:22:00.025Z,39.05
2022-08-05T07:24:30.674Z,40.03
2022-08-05T07:27:17.052Z,41.25
2022-08-05T07:30:23.975Z,41.63
2022-08-05T07:32:53.292Z,41.47
2022-08-05T07:36:04.134Z,42.40
2022-08-05T07:38:34.006Z,43.72
2022-08-05T07:42:08.921Z,43.95
2022-08-05T07:44:18.701Z,46.97
2022-08-05T07:46:49.803Z,46.70
2022-08-05T07:49:43.643Z,46.30
2022-08-05T07:52:23.945Z,45.63
2022-08-05T07:54:53.381Z,46.70
2022-08-05T07:57:42.133Z,46.55
2022-08-05T08:00:11.349Z,53.33
2022-08-05T08:03:13.265Z,52.10
2022-08-05T08:05:28.867Z,51.17
2022-08-05T08:07:59.523Z,50.17
2022-08-05T08:10:48.612Z,48.40
2022-08-05T08:13:28.951Z,48.85
2022-08-05T08:16:35.915Z,47.08
2022-08-05T08:19:02.047Z,46.40
2022-08-05T08:21:29.191Z,45.70
2022-08-05T08:24:01.379Z,46.22
2022-08-05T08:26:32.483Z,40.30
2022-08-05T08:29:02.334Z,34.03
2022-08-05T08:31:52.086Z,31.00
2022-08-05T08:34:30.158Z,29.00
2022-08-05T08:37:18.879Z,27.25
2022-08-05T08:39:49.520Z,26.98
2022-08-05T08:42:50.999Z,26.80
2022-08-05T08:45:27.068Z,27.55
2022-08-05T08:48:12.528Z,30.27
2022-08-05T08:51:22.770Z,33.22
2022-08-05T08:53:45.284Z,33.83
2022-08-05T08:56:12.593Z,34.33
2022-08-05T08:58:44.439Z,35.20
2022-08-05T09:01:17.023Z,36.17
2022-08-05T09:06:41.598Z,36.55
2022-08-05T09:09:08.897Z,36.42
2022-08-05T09:12:00.173Z,38.17
2022-08-05T09:14:58.275Z,38.53
2022-08-05T09:17:45.664Z,40.15
2022-08-05T09:20:36.686Z,37.83
2022-08-05T09:23:22.217Z,37.42
2022-08-05T09:26:00.337Z,35.60
2022-08-05T09:28:33.179Z,36.13
2022-08-05T09:31:23.483Z,34.40
2022-08-05T09:34:03.237Z,33.33
2022-08-05T09:36:54.067Z,30.42
2022-08-05T09:39:24.478Z,26.02
2022-08-05T09:42:17.196Z,23.15
2022-08-05T09:46:04.682Z,21.33
2022-08-05T09:47:56.529Z,20.40
2022-08-05T09:50:43.966Z,19.65
2022-08-05T09:53:22.662Z,18.83
2022-08-05T09:56:12.903Z,18.30
2022-08-05T09:58:41.959Z,16.70
2022-08-05T10:01:32.372Z,15.18
2022-08-05T10:04:10.328Z,15.23
2022-08-05T10:06:49.776Z,14.30
2022-08-05T10:09:45.297Z,13.32
2022-08-05T10:12:18.478Z,12.77
2022-08-05T10:15:25.973Z,13.45
2022-08-05T10:18:11.149Z,11.32
2022-08-05T10:20:44.057Z,12.18
2022-08-05T10:23:22.112Z,12.45
2022-08-05T10:26:13.803Z,11.15
2022-08-05T10:28:58.466Z,11.52
2022-08-05T10:33:01.020Z,11.80
2022-08-05T10:34:40.900Z,11.85
2022-08-05T10:37:08.488Z,10.70
2022-08-05T10:40:16.704Z,10.35
2022-08-05T10:42:51.654Z,8.60
2022-08-05T10:45:40.131Z,9.13
2022-08-05T10:48:29.621Z,7.97
2022-08-05T10:51:22.275Z,8.40
2022-08-05T10:53:54.476Z,7.65
2022-08-05T10:56:25.886Z,6.60
2022-08-05T10:58:53.326Z,6.47
2022-08-05T11:01:54.675Z,6.18
2022-08-05T11:04:26.087Z,6.18
2022-08-05T11:07:11.905Z,7.20
2022-08-05T11:09:46.883Z,6.72
2022-08-05T11:12:41.202Z,4.88
2022-08-05T11:15:58.945Z,5.95
2022-08-05T11:18:34.628Z,6.15
2022-08-05T11:21:11.691Z,5.20
2022-08-05T11:24:04.649Z,5.25
2022-08-05T11:26:49.406Z,4.53
2022-08-05T11:29:42.834Z,5.05
2022-08-05T11:32:30.051Z,4.18
2022-08-05T11:36:07.521Z,3.75
2022-08-05T11:38:45.476Z,4.68
2022-08-05T11:42:01.358Z,3.78
2022-08-05T11:44:52.829Z,4.60
2022-08-05T11:47:49.582Z,4.80
2022-08-05T11:50:17.636Z,5.07
2022-08-05T11:53:06.398Z,4.95
2022-08-05T11:55:37.420Z,5.25
2022-08-05T11:58:09.240Z,4.80
2022-08-05T12:00:41.289Z,3.95
2022-08-05T12:03:28.625Z,4.50
2022-08-05T12:06:06.390Z,4.00
2022-08-05T12:08:51.276Z,2.78
2022-08-05T12:11:40.486Z,3.33
2022-08-05T12:14:21.478Z,3.22
2022-08-05T12:16:54.191Z,3.35
2022-08-05T12:20:16.782Z,3.08
2022-08-05T12:22:32.742Z,3.22
2022-08-05T12:25:18.374Z,2.50
2022-08-05T12:27:52.952Z,2.60
2022-08-05T12:30:38.933Z,2.78
2022-08-05T12:33:27.023Z,2.75
2022-08-05T12:35:56.246Z,3.42
2022-08-05T12:38:23.748Z,3.20
2022-08-05T12:40:59.407Z,3.20
2022-08-05T12:43:26.709Z,2.83
2022-08-05T12:46:29.801Z,2.60
2022-08-05T12:49:25.480Z,2.40
2022-08-05T12:52:23.911Z,2.50
2022-08-05T12:54:55.619Z,2.63
2022-08-05T12:58:50.751Z,2.47
2022-08-05T13:02:03.461Z,3.25
2022-08-05T13:03:42.526Z,2.58
2022-08-05T13:06:15.999Z,3.20
2022-08-05T13:09:07.585Z,2.70
2022-08-05T13:12:01.313Z,2.50
2022-08-05T13:15:05.066Z,3.13
2022-08-05T13:17:41.358Z,2.77
2022-08-05T13:20:35.298Z,3.70
2022-08-05T13:23:16.214Z,3.67
2022-08-05T13:25:52.120Z,3.15
2022-08-05T13:28:27.772Z,3.45
2022-08-05T13:30:58.590Z,3.50
2022-08-05T13:34:22.321Z,4.05
2022-08-05T13:36:23.286Z,4.18
2022-08-05T13:38:54.436Z,2.92
2022-08-05T13:41:40.122Z,2.80
2022-08-05T13:44:07.857Z,3.47
2022-08-05T13:47:01.977Z,3.63
2022-08-05T13:49:32.175Z,3.70
2022-08-05T13:52:29.056Z,3.60
2022-08-05T13:54:57.477Z,3.67
2022-08-05T13:57:51.463Z,3.85
2022-08-05T14:00:26.942Z,3.63
2022-08-05T14:02:56.650Z,3.78
2022-08-05T14:05:47.929Z,3.42
2022-08-05T14:08:32.620Z,3.67
2022-08-05T14:11:18.042Z,4.07
2022-08-05T14:14:05.892Z,4.45
2022-08-05T14:16:33.225Z,4.45
2022-08-05T14:19:19.626Z,4.15
2022-08-05T14:22:09.688Z,4.07
2022-08-05T14:24:55.669Z,4.20
2022-08-05T14:27:22.876Z,3.80
2022-08-05T14:29:51.423Z,4.63
2022-08-05T14:32:27.025Z,3.88
2022-08-05T14:34:57.028Z,3.65
2022-08-05T14:37:42.157Z,4.03
2022-08-05T14:40:31.012Z,3.55
2022-08-05T14:42:58.314Z,3.13
2022-08-05T14:45:26.266Z,3.38
2022-08-05T14:48:02.613Z,3.42
2022-08-05T14:50:32.143Z,3.38
2022-08-05T14:53:00.190Z,2.90
2022-08-05T14:55:39.306Z,3.80
2022-08-05T14:58:19.184Z,3.05
2022-08-05T15:00:59.182Z,2.90
2022-08-05T15:06:16.429Z,1.98
2022-08-05T15:09:03.828Z,1.77
2022-08-05T15:11:51.651Z,2.10
2022-08-05T15:14:48.164Z,1.08
2022-08-05T15:17:45.657Z,1.23
2022-08-05T15:20:19.008Z,1.52
2022-08-05T15:22:54.144Z,1.30
2022-08-05T15:25:50.911Z,1.50
2022-08-05T15:28:15.528Z,1.90
2022-08-05T15:30:45.885Z,1.70
2022-08-05T15:34:04.282Z,1.48
2022-08-05T15:36:24.641Z,1.27
2022-08-05T15:40:41.800Z,1.50
2022-08-05T15:41:59.596Z,1.48
2022-08-05T15:44:28.159Z,1.30
2022-08-05T15:47:16.046Z,1.65
2022-08-05T15:49:56.836Z,1.60
2022-08-05T15:52:54.141Z,1.80
2022-08-05T15:55:24.686Z,1.50
2022-08-05T15:57:52.432Z,1.50
2022-08-05T16:00:32.712Z,1.40
2022-08-05T16:03:10.693Z,1.70
2022-08-05T16:05:38.950Z,1.50
2022-08-05T16:08:24.870Z,1.75
2022-08-05T16:10:58.745Z,1.40
2022-08-05T16:13:45.461Z,1.50
2022-08-05T16:16:13.946Z,1.83
2022-08-05T16:19:07.403Z,1.60
2022-08-05T16:21:58.545Z,1.42
2022-08-05T16:24:51.153Z,1.50
2022-08-05T16:27:46.897Z,1.90
2022-08-05T16:30:25.827Z,1.60
2022-08-05T16:32:54.580Z,1.95
2022-08-05T16:35:27.748Z,1.80
2022-08-05T16:38:01.915Z,2.20
2022-08-05T16:40:48.044Z,2.22
2022-08-05T16:43:23.477Z,2.13
2022-08-05T16:46:23.436Z,2.28
2022-08-05T16:48:52.198Z,2.42
2022-08-05T16:51:20.696Z,2.47
2022-08-05T16:54:05.896Z,2.30
2022-08-05T16:56:41.743Z,2.33
2022-08-05T17:01:54.151Z,2.00
2022-08-05T17:04:26.645Z,1.83
2022-08-05T17:06:55.785Z,1.63
2022-08-05T17:09:58.277Z,1.98
2022-08-05T17:12:51.340Z,1.67
2022-08-05T17:15:49.114Z,1.52
2022-08-05T17:18:19.441Z,1.48
2022-08-05T17:21:06.246Z,1.13
2022-08-05T17:24:03.691Z,1.25
2022-08-05T17:26:39.060Z,1.40
2022-08-05T17:29:13.934Z,1.58
2022-08-05T17:31:59.713Z,1.20
2022-08-05T17:34:30.084Z,1.58
2022-08-05T17:37:04.687Z,1.50
2022-08-05T17:39:51.236Z,1.10
2022-08-05T17:42:28.928Z,1.30
2022-08-05T17:44:57.532Z,1.30
2022-08-05T17:47:43.359Z,1.20
2022-08-05T17:50:11.518Z,1.20
2022-08-05T17:53:02.326Z,1.10
2022-08-05T17:55:37.932Z,1.13
2022-08-05T17:58:09.855Z,0.98
2022-08-05T18:00:47.034Z,1.10
2022-08-05T18:03:55.953Z,1.02
2022-08-05T18:06:12.151Z,1.10
2022-08-05T18:08:52.450Z,1.10
2022-08-05T18:11:23.752Z,1.23
2022-08-05T18:14:20.559Z,1.23
2022-08-05T18:16:54.270Z,1.00
2022-08-05T18:19:40.609Z,1.10
2022-08-05T18:22:18.043Z,1.00
2022-08-05T18:25:04.494Z,1.00
2022-08-05T18:27:31.553Z,0.68
2022-08-05T18:29:59.452Z,0.82
2022-08-05T18:32:27.989Z,1.00
2022-08-05T18:34:59.635Z,0.85
2022-08-05T18:37:34.321Z,1.13
2022-08-05T18:40:34.275Z,1.38
2022-08-05T18:43:16.386Z,1.15
2022-08-05T18:46:03.394Z,1.20
2022-08-05T18:48:33.103Z,0.85
2022-08-05T18:52:05.933Z,0.75
2022-08-05T18:54:31.231Z,0.90
2022-08-05T18:57:19.561Z,1.17
2022-08-05T19:00:01.866Z,0.88
2022-08-05T19:02:49.295Z,1.05
2022-08-05T19:06:12.567Z,1.23
2022-08-05T19:08:12.287Z,1.00
2022-08-05T19:10:42.521Z,1.60
2022-08-05T19:13:12.457Z,1.50
2022-08-05T19:15:59.347Z,1.50
2022-08-05T19:18:48.870Z,1.20
2022-08-05T19:21:17.220Z,1.27
2022-08-05T19:24:12.210Z,1.15
2022-08-05T19:26:43.894Z,1.27
2022-08-05T19:29:41.305Z,1.10
2022-08-05T19:32:11.403Z,1.30
2022-08-05T19:34:39.106Z,1.48
2022-08-05T19:37:06.919Z,0.85
2022-08-05T19:39:45.859Z,0.98
2022-08-05T19:42:35.424Z,1.10
2022-08-05T19:45:20.088Z,0.90
2022-08-05T19:47:55.735Z,1.10
2022-08-05T19:50:41.693Z,1.13
2022-08-05T19:53:09.372Z,0.95
2022-08-05T19:56:15.203Z,0.85
2022-08-05T19:58:54.208Z,1.20
2022-08-05T20:01:39.737Z,1.20
2022-08-05T20:04:07.377Z,1.17
2022-08-05T20:06:46.486Z,1.30
2022-08-05T20:09:14.588Z,1.17
2022-08-05T20:11:48.028Z,1.38
2022-08-05T20:14:23.227Z,1.50
2022-08-05T20:17:13.093Z,1.52
2022-08-05T20:19:50.899Z,1.55
2022-08-05T20:22:42.134Z,1.60
2022-08-05T20:25:13.868Z,1.23
2022-08-05T20:27:59.313Z,1.35
2022-08-05T20:30:27.522Z,1.13
2022-08-05T20:32:54.797Z,1.30
2022-08-05T20:35:21.912Z,1.73
2022-08-05T20:38:07.714Z,1.10
2022-08-05T20:40:55.394Z,1.08
2022-08-05T20:43:57.447Z,1.27
2022-08-05T20:46:33.463Z,1.10
2022-08-05T20:49:00.697Z,1.00
2022-08-05T20:51:53.500Z,1.40
2022-08-05T20:54:25.749Z,1.08
2022-08-05T20:57:43.543Z,1.15
2022-08-05T21:00:41.176Z,1.02
2022-08-05T21:03:20.531Z,1.10
2022-08-05T21:05:54.670Z,1.20
2022-08-05T21:08:28.200Z,1.17
2022-08-05T21:11:12.600Z,1.30
2022-08-05T21:13:55.580Z,1.20
2022-08-05T21:16:29.391Z,1.17
2022-08-05T21:19:00.370Z,1.23
2022-08-05T21:21:39.619Z,1.40
2022-08-05T21:24:30.262Z,1.30
2022-08-05T21:26:59.757Z,1.15
2022-08-05T21:29:48.265Z,1.13
2022-08-05T21:32:19.819Z,1.35
2022-08-05T21:35:17.629Z,1.00
2022-08-05T21:40:14.806Z,1.52
2022-08-05T21:42:45.229Z,1.20
2022-08-05T21:45:24.718Z,1.60
2022-08-05T21:47:56.874Z,1.02
2022-08-05T21:50:54.095Z,1.52
2022-08-05T21:53:24.837Z,1.13
2022-08-05T21:56:17.167Z,1.60
2022-08-05T21:58:56.884Z,1.63
2022-08-05T22:01:43.521Z,1.50
2022-08-05T22:04:15.177Z,1.42
2022-08-05T22:06:42.478Z,1.35
2022-08-05T22:09:20.764Z,1.20
2022-08-05T22:11:51.974Z,1.45
2022-08-05T22:14:35.140Z,1.33
2022-08-05T22:17:23.134Z,1.50
2022-08-05T22:19:57.266Z,1.33
2022-08-05T22:23:16.538Z,1.85
2022-08-05T22:26:09.684Z,1.13
2022-08-05T22:28:56.133Z,1.27
2022-08-05T22:31:24.318Z,1.30
2022-08-05T22:34:25.581Z,1.30
2022-08-05T22:36:58.416Z,1.45
2022-08-05T22:39:44.106Z,0.98
2022-08-05T22:42:26.047Z,1.52
2022-08-05T22:45:12.340Z,1.67
2022-08-05T22:47:40.433Z,1.25
2022-08-05T22:50:26.808Z,1.20
2022-08-05T22:52:55.317Z,1.40
2022-08-05T22:55:57.306Z,1.33
2022-08-05T22:58:30.453Z,1.48
2022-08-05T23:01:18.552Z,0.98
2022-08-05T23:03:57.809Z,1.50
2022-08-05T23:06:45.516Z,1.35
2022-08-05T23:09:27.213Z,1.10
2022-08-05T23:12:23.818Z,1.10
2022-08-05T23:14:53.478Z,1.13
2022-08-05T23:17:24.542Z,1.38
2022-08-05T23:20:10.414Z,1.10
2022-08-05T23:22:47.644Z,1.25
2022-08-05T23:25:51.956Z,1.10
2022-08-05T23:28:07.540Z,1.45
2022-08-05T23:30:40.017Z,1.30
2022-08-05T23:34:02.857Z,1.70
2022-08-05T23:36:15.737Z,1.55
2022-08-05T23:39:01.771Z,1.40
2022-08-05T23:41:29.208Z,1.38
2022-08-05T23:44:05.320Z,1.40
2022-08-05T23:46:33.853Z,1.20
2022-08-05T23:49:16.739Z,1.42
2022-08-05T23:52:14.054Z,1.40
2022-08-05T23:54:50.914Z,1.60
2022-08-05T23:57:24.248Z,1.40
